createdAt,value
2022-10-13T00:01:10.771Z,13.77
2022-10-13T00:03:39.983Z,13.76
2022-10-13T00:06:10.491Z,13.76
2022-10-13T00:08:40.520Z,13.67
2022-10-13T00:11:12.835Z,13.75
2022-10-13T00:13:41.520Z,13.75
2022-10-13T00:16:10.631Z,13.75
2022-10-13T00:18:38.694Z,13.75
2022-10-13T00:21:08.794Z,13.74
2022-10-13T00:23:36.924Z,13.73
2022-10-13T00:26:08.610Z,13.73
2022-10-13T00:28:37.120Z,13.74
2022-10-13T00:31:05.562Z,13.73
2022-10-13T00:33:33.336Z,13.73
2022-10-13T00:36:01.046Z,13.73
2022-10-13T00:38:28.785Z,13.73
2022-10-13T00:40:57.816Z,13.72
2022-10-13T00:43:28.765Z,13.64
2022-10-13T00:45:56.461Z,13.71
2022-10-13T00:48:27.755Z,13.71
2022-10-13T00:50:56.911Z,13.70
2022-10-13T00:53:28.503Z,13.70
2022-10-13T00:55:56.847Z,13.70
2022-10-13T00:58:31.293Z,13.68
2022-10-13T01:01:00.305Z,13.67
2022-10-13T01:03:28.387Z,13.53
2022-10-13T01:06:00.013Z,13.67
2022-10-13T01:08:29.071Z,13.66
2022-10-13T01:11:03.556Z,13.66
2022-10-13T01:13:39.499Z,13.66
2022-10-13T01:16:14.103Z,13.64
2022-10-13T01:18:50.007Z,13.64
2022-10-13T01:21:25.918Z,13.64
2022-10-13T01:24:35.330Z,13.63
2022-10-13T01:27:11.446Z,13.63
2022-10-13T01:30:06.644Z,13.63
2022-10-13T01:32:47.506Z,13.62
2022-10-13T01:35:21.813Z,13.61
2022-10-13T01:37:56.355Z,13.61
2022-10-13T01:40:28.414Z,13.61
2022-10-13T01:42:59.971Z,13.60
2022-10-13T01:45:35.118Z,13.61
2022-10-13T01:48:05.924Z,13.61
2022-10-13T01:50:37.358Z,13.61
2022-10-13T01:53:08.425Z,13.60
2022-10-13T01:55:36.246Z,13.61
2022-10-13T01:58:04.049Z,13.60
2022-10-13T02:00:44.593Z,13.61
2022-10-13T02:03:18.811Z,13.60
2022-10-13T02:05:51.063Z,13.62
2022-10-13T02:08:26.430Z,13.61
2022-10-13T02:11:00.044Z,13.61
2022-10-13T02:13:30.988Z,13.61
2022-10-13T02:16:02.724Z,13.61
2022-10-13T02:18:34.332Z,13.61
2022-10-13T02:21:03.717Z,13.62
2022-10-13T02:23:33.067Z,13.60
2022-10-13T02:26:01.319Z,13.60
2022-10-13T02:28:29.896Z,13.60
2022-10-13T02:30:58.087Z,13.60
2022-10-13T02:33:27.234Z,13.60
2022-10-13T02:35:55.036Z,13.59
2022-10-13T02:38:22.959Z,13.59
2022-10-13T02:40:50.723Z,13.58
2022-10-13T02:43:18.656Z,13.58
2022-10-13T02:45:46.403Z,13.58
2022-10-13T02:48:14.201Z,13.58
2022-10-13T02:50:47.695Z,13.57
2022-10-13T02:53:15.600Z,13.56
2022-10-13T02:55:43.364Z,13.56
2022-10-13T02:58:11.255Z,13.55
2022-10-13T03:00:39.733Z,13.55
2022-10-13T03:03:07.729Z,13.54
2022-10-13T03:05:35.557Z,13.54
2022-10-13T03:08:04.775Z,13.54
2022-10-13T03:10:33.062Z,13.53
2022-10-13T03:13:00.912Z,13.54
2022-10-13T03:15:28.796Z,13.50
2022-10-13T03:17:56.627Z,13.53
2022-10-13T03:20:24.516Z,13.53
2022-10-13T03:22:53.045Z,13.53
2022-10-13T03:25:22.107Z,13.53
2022-10-13T03:27:49.868Z,13.53
2022-10-13T03:30:17.710Z,13.52
2022-10-13T03:32:45.624Z,13.50
2022-10-13T03:35:13.347Z,13.52
2022-10-13T03:37:41.152Z,13.51
2022-10-13T03:40:10.906Z,13.52
2022-10-13T03:42:40.619Z,13.51
2022-10-13T03:45:10.725Z,13.51
2022-10-13T03:47:38.525Z,13.50
2022-10-13T03:50:07.351Z,13.52
2022-10-13T03:52:35.298Z,13.51
2022-10-13T03:55:03.453Z,13.50
2022-10-13T03:57:31.186Z,13.53
2022-10-13T04:00:00.507Z,13.52
2022-10-13T04:02:28.574Z,13.52
2022-10-13T04:04:56.687Z,13.52
2022-10-13T04:07:24.525Z,13.52
2022-10-13T04:09:52.277Z,13.51
2022-10-13T04:12:21.221Z,13.52
2022-10-13T04:14:49.130Z,13.52
2022-10-13T04:17:18.265Z,13.50
2022-10-13T04:19:46.082Z,13.51
2022-10-13T04:22:13.922Z,13.53
2022-10-13T04:24:41.857Z,13.50
2022-10-13T04:27:10.132Z,13.51
2022-10-13T04:29:38.181Z,13.51
2022-10-13T04:32:06.441Z,13.50
2022-10-13T04:34:35.600Z,13.50
2022-10-13T04:37:03.343Z,13.50
2022-10-13T04:39:31.294Z,13.49
2022-10-13T04:41:59.102Z,13.49
2022-10-13T04:44:26.850Z,13.48
2022-10-13T04:46:54.590Z,13.49
2022-10-13T04:49:22.318Z,13.47
2022-10-13T04:51:51.523Z,13.49
2022-10-13T04:54:19.291Z,13.48
2022-10-13T04:56:47.060Z,13.48
2022-10-13T04:59:14.860Z,13.47
2022-10-13T05:01:43.015Z,13.47
2022-10-13T05:04:11.435Z,13.46
2022-10-13T05:07:05.359Z,13.46
2022-10-13T05:09:30.554Z,13.47
2022-10-13T05:11:58.343Z,13.46
2022-10-13T05:14:26.340Z,13.47
2022-10-13T05:16:54.183Z,13.46
2022-10-13T05:19:21.903Z,13.45
2022-10-13T05:21:49.651Z,13.46
2022-10-13T05:24:17.354Z,13.45
2022-10-13T05:26:46.551Z,13.45
2022-10-13T05:29:14.303Z,13.45
2022-10-13T05:31:42.013Z,13.46
2022-10-13T05:34:10.415Z,13.45
2022-10-13T05:36:38.212Z,13.46
2022-10-13T05:39:08.406Z,13.46
2022-10-13T05:41:36.338Z,13.46
2022-10-13T05:44:09.227Z,13.47
2022-10-13T05:46:37.212Z,13.47
2022-10-13T05:49:05.728Z,13.46
2022-10-13T05:51:36.207Z,13.46
2022-10-13T05:54:07.791Z,13.47
2022-10-13T05:56:41.345Z,13.46
2022-10-13T05:59:14.483Z,13.47
2022-10-13T06:01:44.323Z,13.47
2022-10-13T06:04:16.162Z,13.47
2022-10-13T06:06:43.989Z,13.45
2022-10-13T06:09:11.957Z,13.46
2022-10-13T06:11:39.766Z,13.47
2022-10-13T06:14:07.599Z,13.45
2022-10-13T06:16:37.591Z,13.45
2022-10-13T06:19:06.092Z,13.46
2022-10-13T06:21:36.331Z,13.37
2022-10-13T06:24:04.468Z,13.46
2022-10-13T06:26:32.200Z,13.46
2022-10-13T06:29:00.190Z,13.46
2022-10-13T06:31:28.437Z,13.40
2022-10-13T06:33:57.595Z,13.47
2022-10-13T06:36:25.612Z,13.46
2022-10-13T06:38:53.358Z,13.47
2022-10-13T06:41:21.127Z,13.47
2022-10-13T06:43:49.612Z,13.46
2022-10-13T06:46:17.429Z,13.46
2022-10-13T06:48:45.181Z,13.46
2022-10-13T06:51:14.449Z,13.46
2022-10-13T06:53:42.181Z,13.48
2022-10-13T06:56:10.495Z,13.47
2022-10-13T06:58:38.643Z,13.48
2022-10-13T07:01:07.747Z,13.47
2022-10-13T07:03:35.607Z,13.47
2022-10-13T07:06:03.905Z,13.48
2022-10-13T07:08:34.500Z,13.48
2022-10-13T07:11:11.638Z,13.48
2022-10-13T07:13:46.332Z,13.51
2022-10-13T07:16:15.657Z,13.51
2022-10-13T07:18:43.432Z,13.52
2022-10-13T07:21:11.488Z,13.54
2022-10-13T07:23:40.713Z,13.54
2022-10-13T07:26:09.847Z,13.52
2022-10-13T07:28:37.812Z,13.55
2022-10-13T07:31:11.112Z,13.56
2022-10-13T07:33:39.608Z,13.56
2022-10-13T07:36:08.014Z,13.58
2022-10-13T07:38:35.893Z,13.59
2022-10-13T07:41:07.664Z,13.48
2022-10-13T07:43:35.659Z,13.58
2022-10-13T07:46:05.678Z,13.57
2022-10-13T07:48:34.173Z,13.58
2022-10-13T07:51:05.096Z,13.62
2022-10-13T07:53:32.831Z,13.62
2022-10-13T07:56:01.849Z,13.64
2022-10-13T07:58:31.012Z,13.63
2022-10-13T08:00:59.657Z,13.63
2022-10-13T08:03:28.318Z,13.63
2022-10-13T08:05:56.823Z,13.63
2022-10-13T08:08:24.595Z,13.65
2022-10-13T08:10:55.588Z,13.66
2022-10-13T08:13:23.472Z,13.66
2022-10-13T08:15:52.606Z,13.67
2022-10-13T08:18:20.379Z,13.72
2022-10-13T08:20:48.168Z,13.70
2022-10-13T08:23:15.919Z,13.70
2022-10-13T08:25:45.144Z,13.68
2022-10-13T08:28:19.171Z,13.63
2022-10-13T08:30:47.811Z,13.70
2022-10-13T08:33:17.413Z,13.71
2022-10-13T08:35:45.192Z,13.72
2022-10-13T08:38:12.939Z,13.74
2022-10-13T08:40:41.671Z,13.76
2022-10-13T08:43:10.383Z,13.77
2022-10-13T08:45:42.339Z,13.77
2022-10-13T08:48:13.858Z,13.76
2022-10-13T08:50:45.477Z,13.76
2022-10-13T08:53:18.981Z,13.74
2022-10-13T08:55:49.368Z,13.74
2022-10-13T08:58:27.070Z,13.76
2022-10-13T09:01:06.629Z,13.76
2022-10-13T09:03:43.216Z,13.76
2022-10-13T09:06:16.625Z,13.75
2022-10-13T09:08:49.978Z,13.76
2022-10-13T09:11:17.758Z,13.76
2022-10-13T09:13:45.479Z,13.75
2022-10-13T09:16:13.758Z,13.74
2022-10-13T09:18:41.685Z,13.75
2022-10-13T09:21:30.132Z,13.75
2022-10-13T09:24:08.157Z,13.70
2022-10-13T09:26:39.388Z,13.78
2022-10-13T09:29:10.247Z,13.78
2022-10-13T09:31:38.832Z,13.78
2022-10-13T09:34:24.609Z,13.80
2022-10-13T09:37:01.944Z,13.81
2022-10-13T09:39:30.703Z,13.81
2022-10-13T09:42:22.165Z,13.82
2022-10-13T09:44:58.636Z,13.82
2022-10-13T09:47:29.144Z,13.82
2022-10-13T09:50:16.016Z,13.75
2022-10-13T09:52:46.122Z,13.82
2022-10-13T09:55:32.607Z,13.84
2022-10-13T09:58:07.237Z,13.83
2022-10-13T10:00:35.339Z,13.84
2022-10-13T10:03:07.372Z,13.84
2022-10-13T10:05:45.883Z,13.84
2022-10-13T10:08:28.869Z,13.87
2022-10-13T10:11:04.407Z,13.94
2022-10-13T10:13:32.489Z,14.08
2022-10-13T10:16:06.893Z,14.26
2022-10-13T10:18:40.652Z,14.43
2022-10-13T10:21:14.657Z,14.63
2022-10-13T10:23:52.556Z,14.82
2022-10-13T10:26:27.680Z,14.83
2022-10-13T10:29:12.000Z,14.90
2022-10-13T10:31:59.078Z,14.83
2022-10-13T10:34:34.684Z,14.74
2022-10-13T10:37:15.021Z,14.63
2022-10-13T10:39:48.900Z,14.56
2022-10-13T10:42:51.237Z,14.50
2022-10-13T10:45:24.103Z,14.47
2022-10-13T10:47:54.733Z,14.43
2022-10-13T10:50:23.688Z,14.41
2022-10-13T10:52:58.773Z,14.39
2022-10-13T10:55:33.980Z,14.35
2022-10-13T10:58:13.620Z,14.34
2022-10-13T11:00:49.744Z,14.33
2022-10-13T11:03:27.604Z,14.31
2022-10-13T11:06:07.685Z,14.32
2022-10-13T11:08:42.472Z,14.30
2022-10-13T11:11:39.992Z,14.30
2022-10-13T11:14:31.383Z,14.29
2022-10-13T11:17:18.204Z,14.28
2022-10-13T11:19:47.968Z,14.26
2022-10-13T11:22:19.156Z,14.26
2022-10-13T11:24:59.254Z,14.24
2022-10-13T11:27:40.285Z,14.22
2022-10-13T11:30:50.980Z,14.23
2022-10-13T11:33:52.813Z,14.21
2022-10-13T11:36:37.961Z,14.21
2022-10-13T11:39:36.139Z,14.21
2022-10-13T11:42:17.146Z,14.20
2022-10-13T11:44:55.021Z,14.20
2022-10-13T11:47:47.274Z,14.19
2022-10-13T11:50:22.312Z,14.19
2022-10-13T11:53:04.364Z,14.20
2022-10-13T11:55:40.419Z,14.21
2022-10-13T11:58:15.596Z,14.22
2022-10-13T12:00:53.624Z,14.21
2022-10-13T12:03:22.825Z,14.21
2022-10-13T12:05:52.059Z,14.22
2022-10-13T12:08:22.029Z,14.21
2022-10-13T12:10:57.409Z,14.19
2022-10-13T12:13:28.222Z,14.21
2022-10-13T12:16:03.450Z,14.20
2022-10-13T12:18:34.231Z,14.20
2022-10-13T12:21:05.630Z,14.21
2022-10-13T12:23:33.913Z,14.21
2022-10-13T12:26:03.828Z,14.20
2022-10-13T12:28:46.985Z,14.13
2022-10-13T12:31:21.436Z,14.22
2022-10-13T12:33:54.881Z,14.22
2022-10-13T12:36:29.963Z,14.07
2022-10-13T12:39:01.941Z,14.21
2022-10-13T12:41:32.969Z,14.22
2022-10-13T12:44:04.051Z,14.14
2022-10-13T12:46:40.947Z,14.16
2022-10-13T12:49:13.683Z,14.22
2022-10-13T12:51:42.657Z,14.23
2022-10-13T12:54:19.337Z,14.22
2022-10-13T12:56:48.763Z,14.22
2022-10-13T12:59:20.965Z,14.23
2022-10-13T13:02:00.193Z,14.23
2022-10-13T13:04:48.920Z,14.23
2022-10-13T13:07:33.540Z,14.24
2022-10-13T13:10:16.467Z,14.24
2022-10-13T13:12:45.248Z,14.24
2022-10-13T13:15:33.953Z,14.24
2022-10-13T13:18:37.976Z,14.24
2022-10-13T13:21:07.175Z,14.17
2022-10-13T13:23:35.891Z,14.24
2022-10-13T13:26:08.022Z,14.24
2022-10-13T13:28:35.826Z,14.24
2022-10-13T13:31:03.615Z,14.26
2022-10-13T13:33:31.465Z,14.25
2022-10-13T13:36:00.646Z,14.26
2022-10-13T13:38:28.524Z,14.27
2022-10-13T13:41:00.007Z,14.27
2022-10-13T13:43:29.270Z,14.28
2022-10-13T13:45:57.185Z,14.28
2022-10-13T13:48:26.730Z,14.29
2022-10-13T13:50:54.530Z,14.30
2022-10-13T13:53:23.690Z,14.30
2022-10-13T13:55:52.149Z,14.31
2022-10-13T13:58:20.764Z,14.30
2022-10-13T14:00:49.109Z,14.31
2022-10-13T14:03:19.394Z,14.31
2022-10-13T14:05:47.536Z,14.32
2022-10-13T14:08:15.298Z,14.31
2022-10-13T14:10:44.489Z,14.32
2022-10-13T14:13:12.378Z,14.32
2022-10-13T14:15:40.206Z,14.32
2022-10-13T14:18:08.184Z,14.34
2022-10-13T14:20:35.945Z,14.36
2022-10-13T14:23:03.852Z,14.36
2022-10-13T14:25:33.340Z,14.36
2022-10-13T14:28:02.413Z,14.35
2022-10-13T14:30:30.130Z,14.34
2022-10-13T14:32:57.888Z,14.33
2022-10-13T14:35:25.631Z,14.35
2022-10-13T14:37:53.348Z,14.32
2022-10-13T14:40:21.048Z,14.35
2022-10-13T14:42:49.061Z,14.36
2022-10-13T14:45:18.589Z,14.36
2022-10-13T14:47:46.347Z,14.36
2022-10-13T14:50:14.175Z,14.36
2022-10-13T14:52:41.872Z,14.38
2022-10-13T14:55:10.591Z,14.37
2022-10-13T14:57:38.351Z,14.37
2022-10-13T15:00:07.028Z,14.36
2022-10-13T15:02:36.175Z,14.37
2022-10-13T15:05:03.932Z,14.37
2022-10-13T15:07:31.700Z,14.36
2022-10-13T15:10:06.828Z,14.37
2022-10-13T15:12:35.035Z,14.38
2022-10-13T15:15:02.857Z,14.37
2022-10-13T15:17:31.612Z,14.38
2022-10-13T15:20:01.281Z,14.42
2022-10-13T15:22:29.142Z,14.41
2022-10-13T15:24:56.868Z,14.39
2022-10-13T15:27:25.431Z,14.37
2022-10-13T15:29:53.230Z,14.38
2022-10-13T15:32:21.868Z,14.41
2022-10-13T15:34:49.775Z,14.41
2022-10-13T15:37:19.023Z,14.41
2022-10-13T15:39:46.746Z,14.43
2022-10-13T15:42:14.647Z,14.44
2022-10-13T15:45:09.318Z,14.45
2022-10-13T15:47:30.420Z,14.45
2022-10-13T15:49:58.164Z,14.46
2022-10-13T15:52:32.208Z,14.45
2022-10-13T15:55:02.348Z,14.46
2022-10-13T15:57:31.570Z,14.45
2022-10-13T15:59:59.323Z,14.46
2022-10-13T16:02:27.036Z,14.47
2022-10-13T16:04:55.423Z,14.48
2022-10-13T16:07:23.156Z,14.48
2022-10-13T16:09:52.235Z,14.49
2022-10-13T16:12:20.274Z,14.49
2022-10-13T16:14:48.283Z,14.49
2022-10-13T16:17:16.085Z,14.49
2022-10-13T16:19:44.051Z,14.48
2022-10-13T16:22:12.072Z,14.49
2022-10-13T16:24:40.040Z,14.54
2022-10-13T16:27:09.616Z,14.52
2022-10-13T16:29:37.532Z,14.51
2022-10-13T16:32:05.397Z,14.50
2022-10-13T16:34:33.320Z,14.50
2022-10-13T16:37:01.035Z,14.49
2022-10-13T16:39:28.801Z,14.49
2022-10-13T16:41:56.668Z,14.50
2022-10-13T16:44:26.108Z,14.50
2022-10-13T16:46:53.915Z,14.50
2022-10-13T16:49:21.632Z,14.48
2022-10-13T16:51:49.663Z,14.51
2022-10-13T16:54:17.530Z,14.50
2022-10-13T16:56:45.560Z,14.49
2022-10-13T16:59:13.333Z,14.50
2022-10-13T17:01:42.471Z,14.51
2022-10-13T17:04:10.271Z,14.52
2022-10-13T17:06:39.445Z,14.51
2022-10-13T17:09:07.236Z,14.53
2022-10-13T17:11:37.210Z,14.52
2022-10-13T17:14:06.724Z,14.54
2022-10-13T17:16:35.875Z,14.55
2022-10-13T17:19:05.057Z,14.53
2022-10-13T17:21:32.912Z,14.55
2022-10-13T17:24:00.716Z,14.54
2022-10-13T17:26:28.642Z,14.53
2022-10-13T17:28:56.448Z,14.54
2022-10-13T17:31:25.277Z,14.53
2022-10-13T17:33:54.633Z,14.45
2022-10-13T17:36:25.787Z,14.55
2022-10-13T17:38:55.894Z,14.58
2022-10-13T17:41:24.867Z,14.60
2022-10-13T17:43:54.475Z,14.63
2022-10-13T17:46:36.258Z,14.63
2022-10-13T17:49:05.366Z,14.64
2022-10-13T17:51:34.749Z,14.64
2022-10-13T17:54:02.747Z,14.65
2022-10-13T17:56:30.986Z,14.59
2022-10-13T17:59:00.248Z,14.66
2022-10-13T18:01:30.050Z,14.65
2022-10-13T18:03:59.785Z,14.67
2022-10-13T18:06:31.468Z,14.71
2022-10-13T18:09:07.095Z,14.72
2022-10-13T18:11:35.220Z,14.60
2022-10-13T18:14:03.530Z,14.73
2022-10-13T18:16:31.406Z,14.74
2022-10-13T18:18:59.217Z,14.74
2022-10-13T18:21:27.457Z,14.74
2022-10-13T18:23:56.384Z,14.73
2022-10-13T18:26:26.474Z,14.72
2022-10-13T18:28:54.948Z,14.72
2022-10-13T18:31:24.863Z,14.71
2022-10-13T18:33:53.240Z,14.71
2022-10-13T18:36:23.561Z,14.70
2022-10-13T18:38:52.222Z,14.68
2022-10-13T18:41:22.486Z,14.68
2022-10-13T18:43:51.889Z,14.68
2022-10-13T18:46:20.273Z,14.65
2022-10-13T18:48:48.304Z,14.65
2022-10-13T18:51:17.766Z,14.65
2022-10-13T18:53:47.090Z,14.64
2022-10-13T18:56:16.311Z,14.66
2022-10-13T18:58:44.103Z,14.64
2022-10-13T19:01:17.282Z,14.65
2022-10-13T19:03:46.132Z,14.64
2022-10-13T19:06:15.179Z,14.63
2022-10-13T19:08:43.784Z,14.62
2022-10-13T19:11:12.894Z,14.62
2022-10-13T19:13:40.788Z,14.61
2022-10-13T19:16:09.161Z,14.60
2022-10-13T19:18:38.991Z,14.60
2022-10-13T19:21:07.427Z,14.59
2022-10-13T19:23:35.416Z,14.59
2022-10-13T19:26:11.161Z,14.49
2022-10-13T19:28:41.915Z,14.57
2022-10-13T19:31:10.605Z,14.58
2022-10-13T19:33:44.653Z,14.50
2022-10-13T19:36:20.371Z,14.57
2022-10-13T19:38:48.101Z,14.56
2022-10-13T19:41:17.614Z,14.56
2022-10-13T19:43:45.409Z,14.56
2022-10-13T19:46:13.707Z,14.56
2022-10-13T19:48:43.271Z,14.55
2022-10-13T19:51:11.378Z,14.55
2022-10-13T19:53:39.744Z,14.54
2022-10-13T19:56:08.536Z,14.54
2022-10-13T19:58:36.711Z,14.54
2022-10-13T20:01:08.281Z,14.53
2022-10-13T20:03:36.606Z,14.54
2022-10-13T20:06:07.324Z,14.53
2022-10-13T20:08:35.035Z,14.53
2022-10-13T20:11:07.354Z,14.53
2022-10-13T20:13:35.109Z,14.52
2022-10-13T20:16:07.068Z,14.53
2022-10-13T20:18:35.888Z,14.53
2022-10-13T20:21:04.730Z,14.51
2022-10-13T20:23:34.558Z,14.51
2022-10-13T20:26:06.757Z,14.51
2022-10-13T20:28:40.559Z,14.52
2022-10-13T20:31:11.533Z,14.50
2022-10-13T20:33:40.112Z,14.51
2022-10-13T20:36:09.644Z,14.51
2022-10-13T20:38:39.394Z,14.43
2022-10-13T20:41:07.982Z,14.49
2022-10-13T20:43:35.810Z,14.49
2022-10-13T20:46:05.441Z,14.50
2022-10-13T20:48:57.822Z,14.48
2022-10-13T20:51:24.384Z,14.49
2022-10-13T20:53:53.674Z,14.40
2022-10-13T20:56:23.279Z,14.49
2022-10-13T20:58:51.687Z,14.42
2022-10-13T21:01:21.633Z,14.49
2022-10-13T21:03:52.872Z,14.49
2022-10-13T21:06:21.149Z,14.47
2022-10-13T21:08:49.112Z,14.47
2022-10-13T21:11:20.149Z,14.45
2022-10-13T21:13:49.674Z,14.46
2022-10-13T21:16:19.641Z,14.45
2022-10-13T21:18:49.253Z,14.46
2022-10-13T21:21:19.452Z,14.44
2022-10-13T21:23:50.189Z,14.45
2022-10-13T21:26:22.007Z,14.38
2022-10-13T21:28:50.969Z,14.44
2022-10-13T21:31:20.164Z,14.44
2022-10-13T21:33:47.893Z,14.43
2022-10-13T21:36:17.452Z,14.44
2022-10-13T21:38:46.457Z,14.44
2022-10-13T21:41:15.423Z,14.42
2022-10-13T21:43:44.547Z,14.43
2022-10-13T21:46:13.979Z,14.44
2022-10-13T21:48:42.067Z,14.42
2022-10-13T21:51:15.370Z,14.43
2022-10-13T21:53:43.880Z,14.43
2022-10-13T21:56:12.617Z,14.44
2022-10-13T21:58:40.835Z,14.43
2022-10-13T22:01:10.299Z,14.43
2022-10-13T22:03:38.226Z,14.43
2022-10-13T22:06:08.001Z,14.42
2022-10-13T22:08:38.976Z,14.34
2022-10-13T22:11:08.774Z,14.36
2022-10-13T22:13:36.975Z,14.43
2022-10-13T22:16:06.068Z,14.43
2022-10-13T22:18:35.271Z,14.41
2022-10-13T22:21:03.391Z,14.27
2022-10-13T22:23:31.556Z,14.42
2022-10-13T22:25:59.350Z,14.41
2022-10-13T22:28:27.360Z,14.41
2022-10-13T22:30:55.202Z,14.41
2022-10-13T22:33:23.139Z,14.40
2022-10-13T22:35:52.232Z,14.41
2022-10-13T22:38:19.966Z,14.41
2022-10-13T22:40:47.667Z,14.41
2022-10-13T22:43:15.382Z,14.40
2022-10-13T22:45:51.292Z,14.40
2022-10-13T22:48:19.070Z,14.40
2022-10-13T22:50:46.898Z,14.40
2022-10-13T22:53:16.143Z,14.40
2022-10-13T22:55:43.862Z,14.40
2022-10-13T22:58:11.971Z,14.39
2022-10-13T23:00:40.675Z,14.31
2022-10-13T23:03:08.484Z,14.38
2022-10-13T23:05:36.240Z,14.38
2022-10-13T23:08:03.975Z,14.38
2022-10-13T23:10:33.060Z,14.38
2022-10-13T23:13:00.815Z,14.38
2022-10-13T23:15:28.626Z,14.34
2022-10-13T23:17:56.392Z,14.37
2022-10-13T23:20:24.466Z,14.37
2022-10-13T23:22:52.553Z,14.36
2022-10-13T23:25:20.329Z,14.37
2022-10-13T23:27:49.475Z,14.34
2022-10-13T23:30:17.722Z,14.36
2022-10-13T23:32:45.663Z,14.35
2022-10-13T23:35:13.422Z,14.34
2022-10-13T23:37:41.429Z,14.35
2022-10-13T23:40:10.335Z,14.34
2022-10-13T23:42:38.162Z,14.34
2022-10-13T23:45:08.205Z,14.35
2022-10-13T23:47:35.970Z,14.36
2022-10-13T23:50:03.772Z,14.35
2022-10-13T23:52:31.547Z,14.35
2022-10-13T23:54:59.291Z,14.34
2022-10-13T23:57:27.006Z,14.27
2022-10-13T23:59:54.861Z,14.34
